Time;durP1;ratioP1;P1;durP2;ratioP2;P2;SDS_P1;SDS_P2;PMS_P1;PMS_P2;Temp;Humidity;BMP_temperature;BMP_pressure;BME280_temperature;BME280_humidity;BME280_pressure;Samples;Min_cycle;Max_cycle;Signal;HPM_P1;HPM_P2
2023/01/30 00:02:10;;;;;;;8.50;6.53;;;10.10;93.30;;;;;;10371623;28;20274;-87
2023/01/30 00:07:13;;;;;;;9.87;6.57;;;10.90;93.70;;;;;;10386963;28;20191;-87
2023/01/30 00:12:15;;;;;;;9.50;6.17;;;10.50;91.90;;;;;;10371129;28;20260;-87
2023/01/30 00:17:18;;;;;;;3.43;3.10;;;10.00;98.20;;;;;;10386043;28;20213;-87
2023/01/30 00:22:20;;;;;;;4.27;3.03;;;10.80;99.90;;;;;;10371269;28;20247;-87
2023/01/30 00:27:23;;;;;;;4.00;2.60;;;11.30;97.90;;;;;;10386097;28;20543;-88
2023/01/30 00:32:26;;;;;;;7.27;5.10;;;11.70;98.60;;;;;;10386233;28;20204;-87
2023/01/30 00:37:31;;;;;;;10.60;7.40;;;12.00;93.80;;;;;;10386078;28;20267;-87
2023/01/30 00:48:08;;;;;;;3.53;2.30;;;10.30;94.20;;;;;;10325391;28;20248;-87
2023/01/30 00:53:12;;;;;;;7.40;5.73;;;10.90;99.90;;;;;;10325219;28;20213;-87
2023/01/30 00:58:15;;;;;;;8.97;5.40;;;10.70;97.00;;;;;;10309003;28;20272;-87
2023/01/30 01:03:18;;;;;;;9.10;6.27;;;10.20;97.80;;;;;;10309104;28;20229;-87
2023/01/30 01:08:21;;;;;;;9.00;6.03;;;9.80;94.90;;;;;;10311860;28;20198;-87
2023/01/30 01:13:24;;;;;;;7.23;5.83;;;10.10;98.20;;;;;;10332205;28;20210;-87
2023/01/30 01:18:26;;;;;;;4.07;2.53;;;10.20;95.70;;;;;;10315849;28;20710;-87
2023/01/30 01:23:29;;;;;;;7.67;6.17;;;10.20;99.90;;;;;;10363131;28;20224;-87
2023/01/30 01:28:32;;;;;;;9.80;6.33;;;9.80;96.30;;;;;;10377024;28;20197;-87
2023/01/30 01:33:34;;;;;;;7.37;5.17;;;10.20;92.70;;;;;;10375049;28;20206;-87
2023/01/30 01:38:37;;;;;;;6.43;3.20;;;10.50;97.50;;;;;;10376291;28;20285;-88
2023/01/30 01:43:59;;;;;;;6.17;4.60;;;10.00;99.90;;;;;;10391548;28;20249;-87
2023/01/30 01:49:06;;;;;;;8.43;3.00;;;10.30;88.30;;;;;;10391228;28;20200;-88
2023/01/30 01:54:14;;;;;;;9.57;7.13;;;10.20;99.90;;;;;;10391357;28;20206;-87
2023/01/30 01:59:28;;;;;;;10.60;7.40;;;10.40;91.00;;;;;;10375578;28;20241;-87
2023/01/30 02:09:54;;;;;;;9.90;6.90;;;9.20;92.80;;;;;;10390628;28;20549;-87
2023/01/30 02:14:58;;;;;;;8.30;7.10;;;9.90;92.30;;;;;;10374934;28;20566;-87
2023/01/30 02:20:09;;;;;;;9.13;6.40;;;9.20;92.80;;;;;;10374172;28;20275;-87
2023/01/30 02:25:31;;;;;;;7.73;6.03;;;8.70;97.30;;;;;;10389924;28;20566;-87
2023/01/30 02:31:01;;;;;;;10.00;6.73;;;9.50;96.10;;;;;;10372940;28;20678;-87
2023/01/30 02:36:30;;;;;;;7.03;3.67;;;9.80;91.90;;;;;;10389770;28;20598;-87
2023/01/30 02:41:50;;;;;;;7.40;5.60;;;10.40;97.50;;;;;;10374122;28;20588;-87
2023/01/30 02:47:06;;;;;;;8.57;5.23;;;10.20;94.70;;;;;;10388579;28;20745;-87
2023/01/30 02:52:11;;;;;;;6.60;4.50;;;10.90;95.00;;;;;;10372443;28;20223;-87
2023/01/30 02:57:22;;;;;;;5.77;4.17;;;10.90;91.00;;;;;;10371660;28;20264;-87
2023/01/30 03:03:06;;;;;;;9.83;6.47;;;10.60;99.80;;;;;;10388275;28;20283;-87
2023/01/30 03:08:30;;;;;;;9.07;6.30;;;10.20;94.20;;;;;;10349284;28;20216;-88
2023/01/30 03:14:10;;;;;;;7.17;5.50;;;9.30;93.80;;;;;;10388018;28;20208;-87
2023/01/30 03:19:13;;;;;;;8.70;6.20;;;10.10;98.80;;;;;;10371210;28;20256;-88
2023/01/30 03:24:16;;;;;;;5.50;4.27;;;11.50;87.00;;;;;;10387680;28;20274;-87
2023/01/30 03:29:19;;;;;;;5.80;2.60;;;11.30;96.10;;;;;;10372602;28;20605;-88
2023/01/30 03:34:22;;;;;;;6.47;4.93;;;10.90;96.70;;;;;;10370471;28;20204;-87
2023/01/30 03:39:25;;;;;;;4.27;2.77;;;10.60;88.20;;;;;;10387119;28;20214;-88
2023/01/30 03:44:28;;;;;;;6.83;4.13;;;11.20;95.30;;;;;;10370421;28;20228;-87
2023/01/30 03:49:31;;;;;;;6.17;4.37;;;11.40;92.20;;;;;;10372071;28;20200;-87
2023/01/30 03:54:34;;;;;;;8.00;6.40;;;11.10;94.30;;;;;;10386896;28;20697;-87
2023/01/30 03:59:38;;;;;;;7.13;5.13;;;11.10;87.80;;;;;;10386547;28;20231;-87
2023/01/30 04:04:43;;;;;;;6.50;3.93;;;11.60;91.10;;;;;;10370085;28;20213;-88
2023/01/30 04:09:46;;;;;;;5.97;4.90;;;10.30;97.20;;;;;;10370229;28;20206;-87
2023/01/30 04:14:49;;;;;;;7.10;4.23;;;10.40;93.80;;;;;;10386445;28;20748;-87
2023/01/30 04:20:15;;;;;;;5.83;3.73;;;9.70;98.50;;;;;;10369877;28;20247;-88
2023/01/30 04:25:24;;;;;;;11.10;7.30;;;10.50;97.10;;;;;;10369863;28;20209;-87
2023/01/30 04:30:27;;;;;;;4.00;2.33;;;10.80;82.70;;;;;;10371075;28;20201;-87
2023/01/30 04:35:58;;;;;;;3.00;2.47;;;10.80;96.90;;;;;;10369570;28;20211;-87
2023/01/30 04:41:02;;;;;;;8.30;6.33;;;11.00;94.80;;;;;;10369345;28;20275;-87
2023/01/30 04:46:08;;;;;;;6.33;3.63;;;10.40;90.40;;;;;;10376293;28;20281;-87
2023/01/30 04:51:11;;;;;;;7.67;5.47;;;9.70;99.40;;;;;;10393329;28;20211;-87
2023/01/30 04:56:13;;;;;;;6.50;4.87;;;10.50;95.20;;;;;;10376724;28;20230;-87
2023/01/30 05:01:31;;;;;;;5.30;3.43;;;10.10;93.10;;;;;;10376250;28;20593;-87
2023/01/30 05:06:35;;;;;;;9.93;7.47;;;10.70;99.00;;;;;;10376529;28;20259;-87
2023/01/30 05:11:38;;;;;;;9.20;5.73;;;9.40;90.80;;;;;;10392884;28;20202;-87
2023/01/30 05:16:40;;;;;;;9.40;5.30;;;9.70;98.50;;;;;;10392464;28;20227;-87
2023/01/30 05:21:43;;;;;;;12.80;7.23;;;10.90;98.80;;;;;;10377332;28;20599;-87
2023/01/30 05:26:46;;;;;;;8.10;5.47;;;9.90;95.50;;;;;;10391968;28;20205;-87
2023/01/30 05:31:48;;;;;;;4.53;3.57;;;10.60;97.20;;;;;;10391684;28;20210;-87
2023/01/30 05:36:51;;;;;;;6.40;4.83;;;10.00;98.80;;;;;;10376992;28;20204;-87
2023/01/30 05:41:53;;;;;;;8.37;4.80;;;10.50;96.10;;;;;;10376590;28;20289;-87
2023/01/30 05:46:56;;;;;;;4.33;3.70;;;10.80;94.80;;;;;;10391269;28;20213;-87
2023/01/30 05:51:59;;;;;;;5.03;4.13;;;10.40;96.50;;;;;;10391239;28;20193;-87
2023/01/30 05:57:01;;;;;;;6.50;3.60;;;9.40;99.70;;;;;;10374371;28;20232;-88
2023/01/30 06:02:04;;;;;;;9.03;6.23;;;10.30;99.20;;;;;;10390568;28;20640;-87
2023/01/30 06:07:06;;;;;;;9.50;3.37;;;10.80;92.40;;;;;;10375473;28;20201;-87
2023/01/30 06:12:09;;;;;;;4.73;4.07;;;10.50;99.30;;;;;;10375426;28;20578;-86
2023/01/30 06:17:12;;;;;;;8.23;4.17;;;11.10;98.30;;;;;;10375233;28;20206;-87
2023/01/30 06:22:14;;;;;;;6.80;3.80;;;10.10;96.70;;;;;;10390381;28;20629;-87
2023/01/30 06:27:18;;;;;;;5.23;3.60;;;11.40;96.60;;;;;;10374476;28;20205;-87
2023/01/30 06:32:20;;;;;;;9.10;5.47;;;11.60;95.40;;;;;;10389880;28;20273;-86
2023/01/30 06:37:23;;;;;;;9.53;8.07;;;11.30;94.50;;;;;;10374692;28;20198;-86
2023/01/30 06:42:25;;;;;;;10.60;6.70;;;10.70;90.90;;;;;;10372797;28;20235;-86
2023/01/30 06:47:28;;;;;;;6.00;4.40;;;10.60;94.50;;;;;;10374200;28;20193;-86
2023/01/30 06:52:30;;;;;;;8.83;5.90;;;11.10;97.10;;;;;;10373994;28;20255;-87
2023/01/30 06:57:33;;;;;;;2.93;2.43;;;10.30;94.50;;;;;;10372221;28;20236;-87
2023/01/30 07:02:36;;;;;;;6.33;4.20;;;11.10;98.70;;;;;;10373325;28;20225;-86
2023/01/30 07:07:38;;;;;;;6.60;4.90;;;10.70;95.80;;;;;;10388165;28;20561;-87
2023/01/30 07:12:41;;;;;;;7.20;5.17;;;10.50;91.70;;;;;;10373250;28;20195;-87
2023/01/30 07:17:43;;;;;;;6.80;4.53;;;10.80;96.40;;;;;;10387890;28;20214;-87
2023/01/30 07:22:51;;;;;;;7.07;5.40;;;11.70;95.90;;;;;;10372682;28;20637;-87
2023/01/30 07:27:58;;;;;;;8.00;5.47;;;10.80;94.80;;;;;;10371907;28;20203;-88
2023/01/30 07:33:03;;;;;;;7.30;4.57;;;11.40;90.80;;;;;;10387405;28;20240;-87
2023/01/30 07:38:06;;;;;;;4.57;3.43;;;11.50;96.00;;;;;;10387755;28;20198;-87
2023/01/30 07:43:13;;;;;;;7.83;5.70;;;11.30;95.40;;;;;;10372233;28;20230;-88
2023/01/30 07:48:17;;;;;;;5.30;3.70;;;11.00;95.70;;;;;;10372013;28;20257;-87
2023/01/30 07:53:20;;;;;;;4.50;3.17;;;11.40;95.50;;;;;;10386908;28;20625;-87
2023/01/30 07:58:23;;;;;;;6.30;4.63;;;11.20;93.90;;;;;;10386821;28;20272;-88
2023/01/30 08:03:25;;;;;;;2.97;2.07;;;11.80;91.30;;;;;;10370009;28;20788;-88
2023/01/30 08:08:28;;;;;;;4.17;2.77;;;11.20;96.50;;;;;;10387100;28;20197;-88
2023/01/30 08:13:31;;;;;;;3.97;3.17;;;12.00;94.10;;;;;;10386923;28;20203;-88
2023/01/30 08:18:34;;;;;;;6.37;4.03;;;11.80;95.60;;;;;;10389782;28;20218;-89
2023/01/30 08:23:36;;;;;;;8.17;5.30;;;12.20;93.80;;;;;;10379923;28;20212;-88
2023/01/30 08:28:39;;;;;;;3.10;2.50;;;11.70;91.70;;;;;;10394632;28;20580;-88
2023/01/30 08:33:43;;;;;;;6.30;4.33;;;12.20;92.70;;;;;;10394413;28;20237;-89
2023/01/30 08:38:46;;;;;;;4.57;3.23;;;11.60;93.30;;;;;;10394299;28;20672;-88
2023/01/30 08:43:48;;;;;;;3.53;2.43;;;12.20;92.00;;;;;;10394604;28;20611;-89
2023/01/30 08:48:51;;;;;;;5.20;4.17;;;12.40;93.60;;;;;;10394527;28;20574;-88
2023/01/30 08:53:53;;;;;;;4.97;3.60;;;11.60;92.90;;;;;;10378195;28;20203;-88
2023/01/30 08:58:56;;;;;;;5.00;3.27;;;12.30;92.00;;;;;;10378325;28;20289;-88
2023/01/30 09:03:59;;;;;;;5.10;3.60;;;11.80;91.70;;;;;;10392591;28;20386;-87
2023/01/30 09:09:01;;;;;;;3.23;2.70;;;12.60;90.40;;;;;;10393080;28;20256;-88
2023/01/30 09:14:04;;;;;;;4.10;2.37;;;12.60;92.20;;;;;;10377909;28;20219;-87
2023/01/30 09:19:06;;;;;;;4.20;3.00;;;12.60;92.20;;;;;;10376838;28;20286;-86
2023/01/30 09:24:09;;;;;;;5.07;2.83;;;12.10;92.00;;;;;;10392523;28;20223;-86
2023/01/30 09:29:12;;;;;;;2.40;2.00;;;12.10;93.20;;;;;;10392298;28;20577;-86
2023/01/30 09:34:14;;;;;;;2.43;2.00;;;11.90;93.50;;;;;;10376893;28;20623;-87
2023/01/30 09:39:17;;;;;;;10.20;5.77;;;12.30;93.20;;;;;;10376792;28;20231;-86
2023/01/30 09:44:39;;;;;;;5.17;4.40;;;11.70;91.20;;;;;;10375476;28;20229;-86
2023/01/30 09:49:48;;;;;;;6.67;3.67;;;12.20;91.50;;;;;;10336217;28;20207;-86
2023/01/30 09:55:01;;;;;;;3.07;1.73;;;12.40;90.40;;;;;;10376435;28;20205;-86
2023/01/30 10:00:22;;;;;;;5.60;4.80;;;11.90;94.30;;;;;;10390799;28;20212;-86
2023/01/30 10:05:35;;;;;;;5.20;2.60;;;12.10;92.30;;;;;;10375828;28;20607;-87
2023/01/30 10:10:48;;;;;;;4.87;3.63;;;12.00;90.30;;;;;;10376238;28;20258;-86
2023/01/30 10:16:17;;;;;;;2.00;1.63;;;11.70;92.80;;;;;;10374081;28;20986;-86
2023/01/30 10:21:41;;;;;;;4.43;3.20;;;12.10;93.60;;;;;;10374783;28;20255;-86
2023/01/30 10:26:44;;;;;;;7.03;4.77;;;12.50;91.60;;;;;;10375106;28;20257;-86
2023/01/30 10:31:58;;;;;;;7.37;5.50;;;11.70;88.90;;;;;;10374607;28;20206;-86
2023/01/30 10:37:19;;;;;;;2.37;2.10;;;11.60;92.60;;;;;;10374734;28;20260;-86
2023/01/30 10:42:33;;;;;;;5.90;4.33;;;12.20;93.40;;;;;;10389086;28;20280;-86
2023/01/30 10:47:55;;;;;;;5.07;3.77;;;12.20;91.40;;;;;;10372690;28;20256;-86
2023/01/30 10:53:23;;;;;;;4.47;4.07;;;11.80;93.20;;;;;;10374321;28;20697;-86
2023/01/30 10:58:37;;;;;;;3.80;2.40;;;12.10;92.80;;;;;;10372407;28;20648;-86
2023/01/30 11:03:52;;;;;;;2.07;1.73;;;12.10;91.90;;;;;;10373381;28;20216;-86
2023/01/30 11:08:55;;;;;;;5.63;4.20;;;12.30;92.60;;;;;;10373075;28;20210;-86
2023/01/30 11:14:06;;;;;;;4.10;3.17;;;12.00;90.40;;;;;;10372210;28;20326;-86
2023/01/30 11:19:09;;;;;;;1.90;1.50;;;11.40;95.70;;;;;;10373248;28;20258;-86
2023/01/30 11:24:30;;;;;;;6.30;4.43;;;11.80;94.90;;;;;;10386674;28;20220;-86
2023/01/30 11:29:34;;;;;;;3.57;2.57;;;11.40;92.00;;;;;;10371348;28;20213;-86
2023/01/30 11:34:43;;;;;;;5.87;3.53;;;11.70;94.30;;;;;;10372476;28;20208;-86
2023/01/30 11:39:52;;;;;;;3.23;2.30;;;12.30;91.30;;;;;;10387689;28;20259;-86
2023/01/30 11:44:58;;;;;;;3.90;2.73;;;12.40;93.20;;;;;;10372267;28;20274;-87
2023/01/30 11:50:18;;;;;;;2.30;2.10;;;12.50;91.00;;;;;;10384797;28;20207;-87
2023/01/30 11:55:23;;;;;;;1.90;1.77;;;12.70;91.20;;;;;;10372272;28;20229;-86
2023/01/30 12:00:37;;;;;;;4.00;2.37;;;12.60;91.70;;;;;;10371836;28;20244;-86
2023/01/30 12:05:43;;;;;;;4.47;3.60;;;12.70;91.20;;;;;;10386611;28;20220;-86
2023/01/30 12:10:49;;;;;;;2.97;2.67;;;12.10;90.40;;;;;;10371646;28;20195;-86
2023/01/30 12:16:02;;;;;;;5.53;2.20;;;12.00;93.60;;;;;;10386720;28;20207;-86
2023/01/30 12:21:30;;;;;;;2.87;2.13;;;12.20;92.60;;;;;;10386326;28;20579;-86
2023/01/30 12:26:39;;;;;;;3.83;2.80;;;12.80;88.50;;;;;;10371542;28;20213;-85
2023/01/30 12:31:46;;;;;;;3.53;2.67;;;12.50;91.50;;;;;;10386265;28;20257;-85
2023/01/30 12:37:32;;;;;;;4.27;2.37;;;12.70;90.30;;;;;;10371208;28;20191;-85
2023/01/30 12:42:58;;;;;;;6.13;3.87;;;12.50;92.20;;;;;;10371041;28;20222;-85
2023/01/30 12:48:36;;;;;;;2.67;2.07;;;12.40;88.50;;;;;;10370502;28;20265;-86
2023/01/30 12:54:24;;;;;;;4.87;2.97;;;12.70;91.30;;;;;;10360533;28;20214;-86
2023/01/30 13:00:07;;;;;;;5.80;3.60;;;12.60;91.30;;;;;;10370492;28;20566;-85
2023/01/30 13:05:36;;;;;;;1.93;1.30;;;12.10;93.10;;;;;;10374431;28;20224;-86
2023/01/30 13:10:57;;;;;;;2.73;2.30;;;13.00;90.80;;;;;;10377945;28;20200;-86
2023/01/30 13:16:18;;;;;;;4.63;2.03;;;12.60;89.10;;;;;;10376445;28;20216;-86
2023/01/30 13:21:24;;;;;;;3.67;2.90;;;13.00;89.50;;;;;;10376016;28;20206;-86
2023/01/30 13:26:33;;;;;;;3.47;2.13;;;12.90;90.50;;;;;;10377739;28;20251;-85
2023/01/30 13:31:43;;;;;;;1.70;1.60;;;12.80;90.40;;;;;;10375685;28;20240;-86
2023/01/30 13:36:56;;;;;;;4.87;2.90;;;12.60;89.60;;;;;;10336584;28;20197;-86
2023/01/30 13:42:01;;;;;;;3.50;1.77;;;12.50;88.10;;;;;;10335566;28;20264;-86
2023/01/30 13:47:41;;;;;;;1.97;1.13;;;12.70;91.10;;;;;;10350221;28;20584;-86
2023/01/30 13:52:52;;;;;;;1.93;1.43;;;12.80;91.50;;;;;;10334705;28;20263;-87
2023/01/30 13:58:03;;;;;;;3.10;1.80;;;12.50;92.70;;;;;;10350750;28;20237;-86
2023/01/30 14:03:06;;;;;;;4.07;2.43;;;12.20;91.40;;;;;;10335361;28;20253;-86
2023/01/30 14:08:11;;;;;;;3.40;2.23;;;12.30;91.60;;;;;;10335598;28;20203;-86
2023/01/30 14:13:16;;;;;;;3.03;2.27;;;12.60;90.30;;;;;;10350213;28;20205;-86
2023/01/30 14:18:23;;;;;;;3.10;2.30;;;12.20;92.80;;;;;;10333707;28;20202;-86
2023/01/30 14:23:32;;;;;;;2.53;1.80;;;12.60;92.40;;;;;;10334572;28;20574;-86
2023/01/30 14:28:46;;;;;;;4.90;2.73;;;12.90;91.40;;;;;;10334541;28;20617;-85
2023/01/30 14:33:50;;;;;;;3.60;1.60;;;12.00;92.80;;;;;;10334435;28;20225;-86
2023/01/30 14:39:16;;;;;;;3.60;1.60;;;12.40;91.60;;;;;;10334338;28;20574;-86
2023/01/30 14:44:56;;;;;;;2.37;1.60;;;12.60;91.30;;;;;;10333611;28;20231;-86
2023/01/30 14:50:00;;;;;;;5.63;2.87;;;11.50;92.90;;;;;;10348663;28;20204;-86
2023/01/30 14:55:03;;;;;;;2.83;1.90;;;11.90;94.80;;;;;;10347817;28;20262;-86
2023/01/30 15:00:18;;;;;;;2.73;1.97;;;11.00;96.00;;;;;;10333156;28;20203;-86
2023/01/30 15:05:36;;;;;;;4.13;2.13;;;11.70;96.30;;;;;;10333199;28;20234;-86
2023/01/30 15:10:56;;;;;;;6.90;3.23;;;11.90;92.90;;;;;;10333121;28;20210;-86
2023/01/30 15:16:08;;;;;;;3.83;2.00;;;11.80;95.80;;;;;;10332842;28;20689;-86
2023/01/30 15:21:28;;;;;;;4.00;2.50;;;11.90;94.30;;;;;;10332633;28;20230;-86
2023/01/30 15:26:45;;;;;;;3.97;2.63;;;11.10;95.50;;;;;;10332096;28;20214;-86
2023/01/30 15:31:55;;;;;;;4.13;2.60;;;11.40;94.40;;;;;;10332743;28;20563;-86
2023/01/30 15:36:58;;;;;;;4.17;2.30;;;11.60;95.20;;;;;;10372255;28;20648;-86
2023/01/30 15:42:06;;;;;;;1.57;1.47;;;12.10;95.80;;;;;;10387882;28;20574;-86
2023/01/30 15:47:21;;;;;;;3.77;2.20;;;12.10;93.50;;;;;;10371246;28;20220;-86
2023/01/30 15:52:36;;;;;;;1.53;1.43;;;12.20;94.00;;;;;;10372406;28;20217;-86
2023/01/30 15:57:39;;;;;;;2.43;1.03;;;12.40;94.00;;;;;;10367127;28;20794;-86
2023/01/30 16:02:43;;;;;;;1.30;1.10;;;11.90;95.80;;;;;;10371738;28;20211;-86
2023/01/30 16:07:47;;;;;;;2.57;1.37;;;12.00;95.40;;;;;;10386983;28;20563;-86
2023/01/30 16:12:54;;;;;;;4.97;2.77;;;11.80;95.30;;;;;;10371322;28;20566;-86
2023/01/30 16:18:15;;;;;;;5.20;2.17;;;12.30;92.30;;;;;;10386783;28;20196;-86
2023/01/30 16:23:28;;;;;;;5.33;2.70;;;11.90;94.20;;;;;;10369832;28;20591;-86
2023/01/30 16:28:31;;;;;;;3.70;1.80;;;11.10;96.10;;;;;;10386528;28;20191;-85
2023/01/30 16:33:37;;;;;;;5.40;2.23;;;11.10;97.80;;;;;;10371006;28;20643;-86
2023/01/30 16:38:44;;;;;;;3.90;2.43;;;11.30;95.00;;;;;;10387703;28;20206;-86
2023/01/30 16:44:19;;;;;;;5.60;2.50;;;11.30;95.90;;;;;;10378668;28;20648;-86
2023/01/30 16:49:31;;;;;;;3.93;1.67;;;11.20;97.60;;;;;;10394028;28;20625;-86
2023/01/30 16:54:35;;;;;;;4.43;2.40;;;11.60;97.20;;;;;;10393788;28;20205;-85
2023/01/30 16:59:38;;;;;;;5.07;2.37;;;11.70;95.00;;;;;;10378322;28;20637;-86
2023/01/30 17:04:42;;;;;;;4.87;2.87;;;11.40;96.20;;;;;;10392948;28;20229;-86
2023/01/30 17:09:45;;;;;;;4.60;2.77;;;11.50;93.90;;;;;;10393348;28;20249;-86
2023/01/30 17:14:48;;;;;;;4.23;2.37;;;11.60;94.50;;;;;;10393147;28;20207;-86
2023/01/30 17:19:51;;;;;;;4.20;2.43;;;11.30;95.10;;;;;;10377573;28;20195;-86
2023/01/30 17:25:07;;;;;;;3.40;1.50;;;11.20;94.50;;;;;;10377529;28;20251;-85
2023/01/30 17:30:17;;;;;;;3.63;2.23;;;11.50;98.00;;;;;;10377465;28;20335;-85
2023/01/30 17:35:20;;;;;;;4.00;2.40;;;11.60;97.70;;;;;;10392703;28;20248;-85
2023/01/30 17:40:35;;;;;;;2.47;1.87;;;11.10;96.90;;;;;;10377153;28;20200;-86
2023/01/30 17:45:38;;;;;;;2.50;1.63;;;10.80;97.70;;;;;;10376577;28;20220;-86
2023/01/30 17:50:40;;;;;;;3.20;1.90;;;11.30;96.40;;;;;;10376636;28;20196;-86
2023/01/30 17:55:43;;;;;;;3.13;1.93;;;11.10;96.50;;;;;;10375890;28;20232;-86
2023/01/30 18:00:46;;;;;;;8.07;2.90;;;11.30;97.30;;;;;;10375071;28;20240;-85
2023/01/30 18:05:48;;;;;;;2.90;1.63;;;11.00;95.10;;;;;;10391057;28;20300;-86
2023/01/30 18:10:50;;;;;;;1.90;1.57;;;11.70;96.60;;;;;;10375856;28;20203;-85
2023/01/30 18:15:58;;;;;;;6.63;2.87;;;11.80;96.50;;;;;;10374339;28;20263;-86
2023/01/30 18:21:01;;;;;;;4.53;2.67;;;11.80;93.40;;;;;;10390380;28;20273;-85
2023/01/30 18:26:04;;;;;;;2.03;1.20;;;10.60;98.30;;;;;;10390317;28;20282;-85
2023/01/30 18:31:07;;;;;;;2.40;1.87;;;11.20;95.60;;;;;;10374765;28;20193;-85
2023/01/30 18:36:12;;;;;;;6.13;2.90;;;11.30;98.00;;;;;;10374774;28;20551;-85
2023/01/30 18:41:18;;;;;;;4.97;2.37;;;11.20;95.20;;;;;;10374502;28;20204;-86
2023/01/30 18:46:20;;;;;;;6.40;3.40;;;10.00;99.60;;;;;;10373889;28;20225;-86
2023/01/30 18:51:26;;;;;;;6.30;2.47;;;10.90;96.60;;;;;;10374254;28;20197;-85
2023/01/30 18:56:31;;;;;;;3.83;1.43;;;10.60;96.90;;;;;;10374017;28;20295;-86
2023/01/30 19:01:37;;;;;;;2.80;1.63;;;10.60;99.90;;;;;;10373147;28;20566;-85
2023/01/30 19:06:42;;;;;;;4.93;2.53;;;10.70;99.90;;;;;;10388828;28;20224;-85
2023/01/30 19:17:05;;;;;;;5.23;1.90;;;10.00;97.20;;;;;;10388306;28;20210;-86
2023/01/30 19:22:08;;;;;;;6.60;3.37;;;10.70;98.00;;;;;;10373269;28;20202;-85
2023/01/30 19:27:12;;;;;;;2.77;1.47;;;10.00;96.60;;;;;;10373346;28;20749;-86
2023/01/30 19:32:15;;;;;;;7.23;1.67;;;10.50;98.90;;;;;;10387989;28;20198;-86
2023/01/30 19:37:18;;;;;;;5.37;2.47;;;10.50;99.90;;;;;;10372726;28;20650;-86
2023/01/30 19:42:20;;;;;;;5.03;3.00;;;10.60;97.70;;;;;;10387454;28;20224;-86
2023/01/30 19:47:23;;;;;;;3.17;1.37;;;10.60;97.70;;;;;;10372339;28;20241;-85
2023/01/30 19:52:26;;;;;;;2.67;1.77;;;10.90;99.90;;;;;;10372058;28;20260;-85
2023/01/30 19:57:29;;;;;;;2.80;1.97;;;11.10;98.40;;;;;;10386621;28;20229;-86
2023/01/30 20:02:31;;;;;;;3.77;2.50;;;10.80;98.20;;;;;;10386930;28;20554;-85
2023/01/30 20:07:36;;;;;;;2.63;1.80;;;10.60;94.90;;;;;;10371628;28;20724;-85
2023/01/30 20:12:38;;;;;;;5.67;2.80;;;10.70;99.90;;;;;;10371604;28;20209;-86
2023/01/30 20:17:41;;;;;;;4.23;2.00;;;10.60;98.40;;;;;;10379790;28;20227;-86
2023/01/30 20:22:43;;;;;;;3.43;1.87;;;10.90;95.50;;;;;;10395186;28;20625;-86
2023/01/30 20:27:46;;;;;;;7.63;3.07;;;11.00;95.70;;;;;;10394814;28;20226;-86
2023/01/30 20:32:53;;;;;;;2.60;1.70;;;10.40;98.80;;;;;;10379493;28;20201;-85
2023/01/30 20:37:56;;;;;;;2.80;2.03;;;10.70;99.60;;;;;;10394711;28;20204;-86
2023/01/30 20:42:58;;;;;;;3.60;1.33;;;11.00;98.20;;;;;;10379156;28;20218;-86
2023/01/30 20:48:01;;;;;;;9.27;2.90;;;10.50;99.90;;;;;;10394061;28;20224;-85
2023/01/30 20:53:04;;;;;;;2.90;2.00;;;11.10;94.60;;;;;;10378990;28;20199;-85
2023/01/30 20:58:07;;;;;;;2.90;2.00;;;10.60;99.90;;;;;;10378576;28;20302;-86
2023/01/30 21:03:10;;;;;;;4.30;2.30;;;11.00;97.10;;;;;;10378495;28;20210;-85
2023/01/30 21:08:12;;;;;;;9.73;3.30;;;11.30;95.70;;;;;;10393593;28;20271;-85
2023/01/30 21:13:15;;;;;;;3.33;1.73;;;10.90;96.00;;;;;;10378066;28;20211;-86
2023/01/30 21:18:18;;;;;;;8.60;3.37;;;10.20;99.90;;;;;;10393008;28;20567;-86
2023/01/30 21:23:21;;;;;;;7.73;2.10;;;11.00;93.50;;;;;;10377795;28;20248;-86
2023/01/30 21:28:23;;;;;;;3.03;1.27;;;11.00;98.60;;;;;;10392249;28;20586;-86
2023/01/30 21:33:27;;;;;;;2.93;1.23;;;11.20;99.40;;;;;;10391978;28;20614;-86
2023/01/30 21:43:51;;;;;;;3.83;1.97;;;10.80;98.40;;;;;;10376914;28;20209;-85
2023/01/30 21:48:53;;;;;;;5.43;1.80;;;10.70;96.70;;;;;;10376661;28;20272;-86
2023/01/30 21:53:56;;;;;;;3.67;1.80;;;11.30;97.30;;;;;;10374978;28;20669;-85
2023/01/30 21:59:00;;;;;;;4.20;1.73;;;11.00;95.80;;;;;;10376336;28;20258;-86
2023/01/30 22:04:06;;;;;;;5.00;1.90;;;10.80;99.90;;;;;;10390848;28;20259;-85
2023/01/30 22:09:14;;;;;;;1.63;0.97;;;11.30;97.20;;;;;;10391047;28;20260;-86
2023/01/30 22:14:17;;;;;;;6.60;2.30;;;11.50;97.10;;;;;;10390904;28;20283;-86
2023/01/30 22:19:19;;;;;;;9.87;2.87;;;10.80;96.20;;;;;;10390723;28;20209;-85
2023/01/30 22:24:22;;;;;;;3.03;1.10;;;10.50;96.70;;;;;;10373612;28;20214;-86
2023/01/30 22:29:25;;;;;;;4.77;1.13;;;10.00;99.90;;;;;;10375201;28;20199;-86
2023/01/30 22:34:27;;;;;;;5.00;1.77;;;10.60;99.10;;;;;;10389472;28;20578;-86
2023/01/30 22:39:30;;;;;;;14.20;2.33;;;10.90;96.50;;;;;;10372200;28;20208;-86
2023/01/30 22:44:32;;;;;;;7.20;2.40;;;10.50;98.50;;;;;;10374459;28;20282;-86
2023/01/30 22:49:35;;;;;;;8.90;2.27;;;11.50;96.40;;;;;;10389210;28;20210;-86
2023/01/30 22:54:38;;;;;;;5.93;2.07;;;10.90;97.30;;;;;;10389269;28;20201;-86
2023/01/30 22:59:40;;;;;;;7.13;3.13;;;11.00;97.30;;;;;;10374141;28;20232;-86
2023/01/30 23:04:43;;;;;;;6.23;2.33;;;10.90;96.70;;;;;;10388491;28;20260;-86
2023/01/30 23:09:45;;;;;;;5.70;1.70;;;11.10;96.60;;;;;;10389024;28;20196;-86
2023/01/30 23:14:48;;;;;;;10.33;2.47;;;11.00;96.20;;;;;;10373761;28;20215;-85
2023/01/30 23:19:51;;;;;;;4.17;1.87;;;10.80;95.50;;;;;;10373418;28;20233;-86
2023/01/30 23:24:54;;;;;;;6.83;1.13;;;10.30;96.50;;;;;;10387844;28;20227;-86
2023/01/30 23:29:56;;;;;;;5.33;1.97;;;10.50;99.10;;;;;;10372942;28;20247;-86
2023/01/30 23:34:59;;;;;;;5.33;2.00;;;10.20;97.40;;;;;;10387312;28;20238;-86
2023/01/30 23:40:02;;;;;;;7.23;1.93;;;10.00;98.40;;;;;;10372705;28;20211;-85
2023/01/30 23:45:05;;;;;;;4.47;2.30;;;11.30;93.90;;;;;;10387210;28;20273;-86
2023/01/30 23:50:08;;;;;;;7.73;2.33;;;10.90;92.20;;;;;;10371906;28;20202;-86
2023/01/30 23:55:10;;;;;;;7.23;2.13;;;10.40;95.10;;;;;;10371830;28;20562;-86
